Time;durP1;ratioP1;P1;durP2;ratioP2;P2;SDS_P1;SDS_P2;PMS_P1;PMS_P2;Temp;Humidity;BMP_temperature;BMP_pressure;BME280_temperature;BME280_humidity;BME280_pressure;Samples;Min_cycle;Max_cycle;Signal;HPM_P1;HPM_P2
2021/04/08 00:00:11;;;;;;;7.85;3.70;;;;;;;2.21;71.14;101176.00;5009278;28;20402;-72
2021/04/08 00:02:43;;;;;;;5.93;3.35;;;;;;;2.18;70.92;101178.78;5008964;28;20041;-71
2021/04/08 00:05:11;;;;;;;9.50;3.97;;;;;;;2.16;68.83;101179.78;5009123;28;20030;-71
2021/04/08 00:07:36;;;;;;;6.00;3.65;;;;;;;2.18;69.65;101180.53;5009410;28;20044;-71
2021/04/08 00:10:03;;;;;;;7.00;2.85;;;;;;;2.19;68.08;101180.44;5009375;28;20038;-71
2021/04/08 00:12:28;;;;;;;6.22;3.17;;;;;;;2.20;67.21;101182.16;5008293;28;20130;-71
2021/04/08 00:14:54;;;;;;;5.60;2.72;;;;;;;2.20;65.72;101184.75;4991626;28;20129;-71
2021/04/08 00:17:19;;;;;;;5.80;2.88;;;;;;;2.23;65.28;101184.59;5008351;28;20038;-71
2021/04/08 00:19:44;;;;;;;6.82;2.90;;;;;;;2.16;65.16;101180.63;5009919;28;20457;-71
2021/04/08 00:22:09;;;;;;;3.42;2.22;;;;;;;2.19;66.31;101188.28;4990858;28;20046;-71
2021/04/08 00:24:35;;;;;;;8.70;2.72;;;;;;;2.14;65.10;101187.69;5008891;28;20061;-71
2021/04/08 00:27:00;;;;;;;4.63;3.10;;;;;;;2.14;66.65;101182.47;5009163;28;20038;-71
2021/04/08 00:29:25;;;;;;;5.28;2.40;;;;;;;2.13;66.25;101184.22;5009254;28;20037;-71
2021/04/08 00:31:50;;;;;;;5.40;2.90;;;;;;;2.11;65.21;101188.69;5008748;28;20042;-71
2021/04/08 00:34:16;;;;;;;3.55;2.33;;;;;;;2.15;66.65;101193.75;4990999;28;20510;-72
2021/04/08 00:36:41;;;;;;;4.68;2.63;;;;;;;2.06;66.61;101189.88;5007760;28;20042;-71
2021/04/08 00:39:06;;;;;;;6.43;2.65;;;;;;;2.09;63.95;101198.34;5009091;28;20032;-71
2021/04/08 00:41:33;;;;;;;6.85;2.67;;;;;;;2.10;64.07;101194.00;5008551;28;20041;-71
2021/04/08 00:43:58;;;;;;;3.92;2.70;;;;;;;2.09;64.31;101194.91;5009328;28;20405;-71
2021/04/08 00:46:24;;;;;;;5.82;3.03;;;;;;;2.08;63.38;101199.28;5007409;28;20031;-71
2021/04/08 00:48:49;;;;;;;4.45;2.70;;;;;;;2.06;63.82;101197.69;5009593;28;20041;-71
2021/04/08 00:51:15;;;;;;;5.68;2.20;;;;;;;2.02;65.65;101204.81;5008534;28;20034;-71
2021/04/08 00:53:40;;;;;;;7.15;3.13;;;;;;;2.05;65.45;101204.69;5011668;28;20121;-71
2021/04/08 00:56:07;;;;;;;4.05;2.30;;;;;;;2.01;62.89;101208.34;5012326;28;20033;-71
2021/04/08 00:58:33;;;;;;;5.05;2.70;;;;;;;2.05;64.96;101212.50;5013113;28;20410;-72
2021/04/08 01:00:59;;;;;;;3.90;2.55;;;;;;;2.05;65.21;101212.50;5013997;28;20499;-71
2021/04/08 01:03:24;;;;;;;5.05;2.53;;;;;;;2.01;64.60;101216.19;5012816;28;20100;-72
2021/04/08 01:05:50;;;;;;;5.30;2.88;;;;;;;1.99;63.92;101212.81;5013049;28;20029;-71
2021/04/08 01:08:15;;;;;;;5.53;2.85;;;;;;;2.03;64.87;101218.72;5012220;28;20046;-71
2021/04/08 01:10:43;;;;;;;5.00;2.45;;;;;;;1.96;66.07;101215.59;4994672;28;20084;-71
2021/04/08 01:13:11;;;;;;;6.05;2.60;;;;;;;1.89;63.86;101216.81;5012573;28;20037;-71
2021/04/08 01:15:38;;;;;;;3.78;2.35;;;;;;;1.87;65.50;101221.28;5012506;28;20041;-71
2021/04/08 01:18:21;;;;;;;4.32;2.25;;;;;;;1.84;63.96;101216.22;5012476;28;20061;-71
2021/04/08 01:21:05;;;;;;;5.78;2.83;;;;;;;1.85;65.45;101221.34;5011479;28;20062;-71
2021/04/08 01:24:12;;;;;;;7.32;2.47;;;;;;;1.80;63.32;101219.91;5012415;28;20026;-72
2021/04/08 01:27:13;;;;;;;6.45;2.70;;;;;;;1.77;63.41;101226.13;5011311;28;20037;-71
2021/04/08 01:29:57;;;;;;;4.50;2.60;;;;;;;1.76;63.55;101221.81;5011612;28;20030;-71
2021/04/08 01:32:27;;;;;;;4.60;2.10;;;;;;;1.76;63.98;101231.41;5008146;28;20296;-71
2021/04/08 01:34:55;;;;;;;3.60;1.90;;;;;;;1.72;64.41;101225.50;4998675;28;20042;-71
2021/04/08 01:37:27;;;;;;;6.40;2.80;;;;;;;1.69;63.48;101231.72;5011772;28;20038;-71
2021/04/08 01:39:53;;;;;;;4.82;2.30;;;;;;;1.68;64.40;101230.03;5012149;28;20588;-70
2021/04/08 01:42:21;;;;;;;3.70;2.05;;;;;;;1.65;66.19;101231.97;5011045;28;20034;-71
2021/04/08 01:44:47;;;;;;;4.63;2.10;;;;;;;1.60;65.25;101237.41;5012415;28;20030;-71
2021/04/08 01:47:14;;;;;;;3.72;2.10;;;;;;;1.58;65.37;101241.84;5011372;28;20038;-71
2021/04/08 01:49:42;;;;;;;3.70;2.10;;;;;;;1.49;64.92;101245.72;5011524;28;20125;-71
2021/04/08 01:52:13;;;;;;;3.83;1.70;;;;;;;1.43;66.14;101240.84;5010571;28;20064;-70
2021/04/08 01:54:39;;;;;;;;;;;;;;;1.39;66.70;101243.66;4994479;28;20034;-71
2021/04/08 01:57:10;;;;;;;3.78;1.88;;;;;;;1.30;66.31;101244.94;5011236;28;19971;-70
2021/04/08 01:59:36;;;;;;;4.05;2.20;;;;;;;1.22;66.81;101247.94;4989185;28;20034;-71
2021/04/08 02:02:02;;;;;;;2.72;1.50;;;;;;;1.14;68.24;101257.03;5010804;28;20030;-70
2021/04/08 02:04:30;;;;;;;3.42;1.90;;;;;;;1.10;67.15;101248.53;5009262;28;20038;-71
2021/04/08 02:06:58;;;;;;;4.95;2.30;;;;;;;1.06;67.31;101252.19;5011704;28;20037;-71
2021/04/08 02:09:25;;;;;;;5.70;2.20;;;;;;;1.02;67.64;101253.25;5011499;28;20037;-71
2021/04/08 02:11:52;;;;;;;3.28;1.95;;;;;;;0.96;68.69;101251.78;5011393;28;20045;-71
2021/04/08 02:14:19;;;;;;;3.95;2.10;;;;;;;0.90;68.32;101257.25;5008817;28;20034;-71
2021/04/08 02:16:46;;;;;;;2.97;1.63;;;;;;;0.86;69.12;101260.94;4992869;28;20084;-72
2021/04/08 02:19:12;;;;;;;4.47;2.30;;;;;;;0.88;67.62;101263.47;5011381;28;20041;-71
2021/04/08 02:21:40;;;;;;;5.63;2.47;;;;;;;0.84;67.26;101260.16;5010923;28;20420;-71
2021/04/08 02:24:07;;;;;;;3.55;1.90;;;;;;;0.78;68.58;101263.03;4992396;28;20033;-70
2021/04/08 02:26:33;;;;;;;3.25;1.83;;;;;;;0.77;70.06;101261.38;5010752;28;20406;-70
2021/04/08 02:29:00;;;;;;;3.10;1.80;;;;;;;0.73;68.12;101265.84;4993375;28;20120;-71
2021/04/08 02:31:27;;;;;;;5.35;2.10;;;;;;;0.70;68.46;101267.78;4993068;28;20045;-71
2021/04/08 02:33:52;;;;;;;4.63;2.20;;;;;;;0.66;69.13;101264.44;5010340;28;20061;-71
2021/04/08 02:36:17;;;;;;;6.68;2.75;;;;;;;0.62;70.81;101265.50;5010182;28;20073;-71
2021/04/08 02:38:43;;;;;;;5.35;2.38;;;;;;;0.59;68.50;101266.47;5010937;28;20056;-71
2021/04/08 02:41:09;;;;;;;4.30;2.22;;;;;;;0.53;71.69;101268.53;5011163;28;20034;-71
2021/04/08 02:43:36;;;;;;;2.75;1.70;;;;;;;0.49;74.01;101273.03;5010405;28;20045;-71
2021/04/08 02:46:03;;;;;;;4.63;1.77;;;;;;;0.52;70.38;101279.84;5010281;28;20038;-71
2021/04/08 02:48:31;;;;;;;4.13;1.90;;;;;;;0.52;72.65;101278.06;5005709;28;20108;-71
2021/04/08 02:51:01;;;;;;;3.40;2.20;;;;;;;0.46;72.13;101278.38;5010174;28;20730;-71
2021/04/08 02:53:51;;;;;;;4.40;2.00;;;;;;;0.49;75.71;101280.81;5010988;28;20060;-71
2021/04/08 02:56:36;;;;;;;4.10;2.10;;;;;;;0.52;72.29;101278.06;5009170;28;20399;-71
2021/04/08 02:59:09;;;;;;;4.25;2.05;;;;;;;0.52;73.14;101279.84;4990303;28;20068;-70
2021/04/08 03:01:43;;;;;;;5.38;2.40;;;;;;;0.54;71.95;101275.41;5009504;28;20045;-71
2021/04/08 03:04:10;;;;;;;3.70;2.05;;;;;;;0.50;73.15;101273.84;5007918;28;20050;-71
2021/04/08 03:06:36;;;;;;;5.18;3.08;;;;;;;0.51;72.84;101276.41;5009494;28;20041;-71
2021/04/08 03:09:03;;;;;;;3.67;2.22;;;;;;;0.53;72.50;101281.56;5010715;28;20022;-72
2021/04/08 03:11:32;;;;;;;6.43;2.90;;;;;;;0.58;71.47;101288.22;5010098;28;20498;-71
2021/04/08 03:14:01;;;;;;;6.13;2.78;;;;;;;0.57;70.78;101283.94;5009877;28;20045;-70
2021/04/08 03:16:33;;;;;;;6.68;3.05;;;;;;;0.68;70.17;101290.41;5009262;28;20105;-70
2021/04/08 03:19:01;;;;;;;5.82;3.35;;;;;;;0.77;69.77;101288.25;5009439;28;20109;-71
2021/04/08 03:21:29;;;;;;;5.32;2.42;;;;;;;0.79;70.71;101291.63;5010119;28;20041;-71
2021/04/08 03:23:56;;;;;;;5.10;2.20;;;;;;;0.78;69.98;101297.72;5010059;28;20483;-71
2021/04/08 03:26:23;;;;;;;4.20;2.47;;;;;;;0.85;71.34;101298.28;5009573;28;20037;-71
2021/04/08 03:28:50;;;;;;;5.65;3.13;;;;;;;0.85;70.72;101306.09;4992293;28;20573;-71
2021/04/08 03:31:17;;;;;;;8.07;3.28;;;;;;;0.93;69.66;101303.16;5010390;28;20038;-71
2021/04/08 03:33:44;;;;;;;5.10;2.90;;;;;;;0.96;70.10;101295.22;5009972;28;20088;-71
2021/04/08 03:36:10;;;;;;;6.30;3.03;;;;;;;0.99;69.67;101306.31;5008597;28;20117;-70
2021/04/08 03:38:36;;;;;;;4.53;2.25;;;;;;;1.04;70.18;101304.34;5010102;28;20092;-71
2021/04/08 03:41:02;;;;;;;3.72;2.25;;;;;;;1.08;69.31;101299.84;5009481;28;20037;-71
2021/04/08 03:43:27;;;;;;;6.53;2.60;;;;;;;1.13;69.03;101315.25;5009825;28;20041;-71
2021/04/08 03:45:58;;;;;;;4.95;2.42;;;;;;;1.16;69.65;101309.91;5009354;28;20041;-70
2021/04/08 03:48:25;;;;;;;6.72;3.53;;;;;;;1.21;68.34;101318.34;5010007;28;20518;-70
2021/04/08 03:50:51;;;;;;;4.53;2.63;;;;;;;1.20;69.01;101314.06;5009386;28;20092;-70
2021/04/08 03:53:17;;;;;;;4.53;2.70;;;;;;;1.18;70.35;101311.50;5009006;28;20396;-71
2021/04/08 03:55:45;;;;;;;5.05;3.13;;;;;;;1.13;70.73;101315.25;5009372;28;20058;-71
2021/04/08 03:58:12;;;;;;;5.03;2.90;;;;;;;1.17;69.82;101317.66;5008582;28;20137;-71
2021/04/08 04:00:38;;;;;;;6.13;3.22;;;;;;;1.15;70.19;101318.63;5009298;28;20036;-70
2021/04/08 04:03:07;;;;;;;5.32;3.42;;;;;;;1.19;69.87;101321.03;5009729;28;20121;-71
2021/04/08 04:05:32;;;;;;;6.22;3.60;;;;;;;1.22;68.42;101322.66;5009207;28;20079;-71
2021/04/08 04:07:58;;;;;;;7.00;3.92;;;;;;;1.25;69.40;101320.72;5009447;28;20061;-71
2021/04/08 04:10:23;;;;;;;5.70;3.50;;;;;;;1.23;69.61;101319.13;5007979;28;20038;-71
2021/04/08 04:12:55;;;;;;;4.88;2.70;;;;;;;1.26;70.62;101321.56;5006993;28;20040;-71
2021/04/08 04:15:20;;;;;;;10.32;4.13;;;;;;;1.33;68.95;101327.34;5008913;28;20038;-71
2021/04/08 04:17:46;;;;;;;7.95;4.57;;;;;;;1.18;70.67;101323.69;4991788;28;20042;-71
2021/04/08 04:20:12;;;;;;;4.35;2.78;;;;;;;1.21;69.32;101320.94;5008342;28;20041;-71
2021/04/08 04:22:39;;;;;;;5.72;2.80;;;;;;;1.22;70.99;101323.50;5010088;28;20033;-70
2021/04/08 04:25:07;;;;;;;6.20;3.85;;;;;;;1.31;68.21;101322.22;5008367;28;20026;-70
2021/04/08 04:27:33;;;;;;;5.97;3.35;;;;;;;1.26;69.29;101327.66;5010208;28;20056;-71
2021/04/08 04:29:58;;;;;;;4.82;3.00;;;;;;;1.27;69.40;101331.09;5013411;28;20129;-71
2021/04/08 04:32:23;;;;;;;7.07;3.38;;;;;;;1.24;70.83;101331.22;5012327;28;20073;-71
2021/04/08 04:34:49;;;;;;;8.90;4.88;;;;;;;1.28;68.85;101332.75;5012880;28;20491;-71
2021/04/08 04:37:14;;;;;;;7.13;4.00;;;;;;;1.16;69.60;101339.38;5012971;28;20037;-71
2021/04/08 04:39:40;;;;;;;4.80;3.47;;;;;;;1.20;69.49;101342.72;5013110;28;20042;-71
2021/04/08 04:42:07;;;;;;;5.65;3.75;;;;;;;1.08;69.33;101354.53;5011896;28;20104;-71
2021/04/08 04:44:32;;;;;;;6.57;4.18;;;;;;;1.15;69.29;101352.50;5013318;28;20548;-71
2021/04/08 04:46:58;;;;;;;4.10;2.80;;;;;;;1.15;69.72;101355.94;5012987;28;20034;-71
2021/04/08 04:49:24;;;;;;;9.23;4.10;;;;;;;1.16;70.06;101359.38;5013205;28;20403;-71
2021/04/08 04:51:51;;;;;;;10.63;5.00;;;;;;;1.24;68.95;101365.94;5008987;28;20462;-71
2021/04/08 04:54:16;;;;;;;4.63;3.15;;;;;;;1.22;68.73;101361.72;5012018;28;20038;-71
2021/04/08 04:56:42;;;;;;;5.65;3.13;;;;;;;1.23;69.76;101364.25;5013522;28;20116;-71
2021/04/08 04:59:07;;;;;;;7.25;3.85;;;;;;;1.17;70.62;101363.66;5011716;28;20038;-70
2021/04/08 05:01:32;;;;;;;7.60;3.58;;;;;;;1.20;71.36;101368.75;4994834;28;20066;-71
2021/04/08 05:03:58;;;;;;;4.28;2.70;;;;;;;1.25;70.69;101375.44;5012162;28;20061;-71
2021/04/08 05:06:24;;;;;;;4.50;2.60;;;;;;;1.32;70.18;101376.00;5011301;28;20088;-71
2021/04/08 05:08:49;;;;;;;4.32;3.20;;;;;;;1.32;71.33;101376.00;5012724;28;20034;-71
2021/04/08 05:11:15;;;;;;;8.10;4.32;;;;;;;1.41;69.60;101372.97;5012287;28;20041;-70
2021/04/08 05:13:40;;;;;;;8.00;4.20;;;;;;;1.46;69.04;101377.97;5010276;28;20045;-71
2021/04/08 05:16:06;;;;;;;9.98;5.43;;;;;;;1.56;68.92;101373.16;5011080;28;20045;-70
2021/04/08 05:18:31;;;;;;;11.65;7.53;;;;;;;1.59;68.62;101379.06;5012554;28;20139;-71
2021/04/08 05:20:57;;;;;;;9.93;7.40;;;;;;;1.56;68.97;101387.03;5012263;28;20036;-71
2021/04/08 05:23:22;;;;;;;11.60;7.88;;;;;;;1.63;68.54;101387.59;5011908;28;20438;-70
2021/04/08 05:25:48;;;;;;;8.85;4.60;;;;;;;1.62;67.93;101391.09;5011621;28;20038;-71
2021/04/08 05:28:14;;;;;;;8.35;5.50;;;;;;;1.63;68.94;101390.19;5012408;28;20119;-71
2021/04/08 05:30:39;;;;;;;7.45;4.88;;;;;;;1.64;70.31;101400.53;5012041;28;20518;-70
2021/04/08 05:33:04;;;;;;;8.88;5.85;;;;;;;1.55;70.45;101403.59;5012038;28;20092;-70
2021/04/08 05:35:30;;;;;;;9.88;5.68;;;;;;;1.53;73.14;101407.22;5011720;28;20038;-70
2021/04/08 05:37:55;;;;;;;8.73;4.30;;;;;;;1.68;70.08;101398.66;5012010;28;20306;-70
2021/04/08 05:40:20;;;;;;;8.20;4.65;;;;;;;1.59;70.66;101409.50;4992006;28;20041;-71
2021/04/08 05:42:46;;;;;;;7.65;3.85;;;;;;;1.65;70.12;101411.84;5011515;28;20040;-71
2021/04/08 05:45:13;;;;;;;5.13;3.22;;;;;;;1.77;68.59;101416.47;5012657;28;20064;-70
2021/04/08 05:47:38;;;;;;;5.13;3.35;;;;;;;1.82;68.32;101421.47;4995093;28;20414;-71
2021/04/08 05:50:04;;;;;;;9.10;5.00;;;;;;;1.91;68.01;101414.03;5011969;28;20069;-70
2021/04/08 05:52:29;;;;;;;12.05;5.53;;;;;;;1.95;67.46;101419.09;5010959;28;20092;-71
2021/04/08 05:54:55;;;;;;;6.00;4.30;;;;;;;1.91;66.03;101423.63;5010856;28;20041;-71
2021/04/08 05:57:20;;;;;;;7.72;4.43;;;;;;;1.95;66.45;101427.75;5011748;28;20033;-71
2021/04/08 05:59:45;;;;;;;7.13;4.07;;;;;;;1.95;66.16;101417.31;5011608;28;20124;-70
2021/04/08 06:02:11;;;;;;;7.30;4.07;;;;;;;1.94;66.74;101420.03;5009997;28;20510;-71
2021/04/08 06:04:36;;;;;;;6.95;3.60;;;;;;;1.97;67.46;101422.47;5011221;28;20041;-71
2021/04/08 06:07:02;;;;;;;7.53;3.60;;;;;;;1.99;66.44;101424.09;5010988;28;20380;-71
2021/04/08 06:09:27;;;;;;;8.70;4.90;;;;;;;2.00;67.59;101431.00;5012226;28;20034;-71
2021/04/08 06:11:53;;;;;;;6.53;3.83;;;;;;;2.08;66.98;101430.63;5011145;28;20041;-71
2021/04/08 06:14:18;;;;;;;9.90;5.78;;;;;;;2.15;66.24;101426.81;5010266;28;20038;-71
2021/04/08 06:16:43;;;;;;;11.27;5.13;;;;;;;2.21;66.24;101442.13;5011186;28;20459;-72
2021/04/08 06:19:09;;;;;;;12.38;5.50;;;;;;;2.28;65.22;101435.69;5010582;28;20152;-70
2021/04/08 06:21:38;;;;;;;7.30;4.88;;;;;;;2.25;65.53;101435.03;5011598;28;20069;-73
2021/04/08 06:24:04;;;;;;;8.90;5.07;;;;;;;2.31;65.28;101435.56;5011019;28;20030;-71
2021/04/08 06:26:29;;;;;;;9.40;5.68;;;;;;;2.39;64.64;101424.75;4995526;28;20027;-73
2021/04/08 06:28:54;;;;;;;11.48;5.95;;;;;;;2.41;64.13;101432.47;4989988;28;20030;-72
2021/04/08 06:31:20;;;;;;;8.63;4.93;;;;;;;2.45;64.37;101434.00;5010544;28;20064;-71
2021/04/08 06:33:45;;;;;;;6.40;4.15;;;;;;;2.47;63.51;101430.41;5011253;28;20057;-70
2021/04/08 06:36:11;;;;;;;8.23;4.70;;;;;;;2.57;63.81;101436.00;5009645;28;20041;-71
2021/04/08 06:38:36;;;;;;;10.82;5.63;;;;;;;2.63;63.25;101440.94;4991005;28;20113;-71
2021/04/08 06:41:02;;;;;;;10.25;5.00;;;;;;;2.74;63.41;101436.00;5010820;28;20132;-70
2021/04/08 06:43:30;;;;;;;10.00;5.60;;;;;;;2.84;62.77;101436.38;5010623;28;20045;-72
2021/04/08 06:45:58;;;;;;;9.70;5.50;;;;;;;2.94;62.13;101441.97;5010748;28;20034;-72
2021/04/08 06:48:38;;;;;;;9.50;5.05;;;;;;;2.91;63.06;101439.53;5010609;28;20181;-73
2021/04/08 06:51:10;;;;;;;11.95;5.70;;;;;;;3.09;61.62;101448.16;5010736;28;20105;-72
2021/04/08 06:53:37;;;;;;;8.98;4.90;;;;;;;3.09;61.40;101450.75;5010704;28;20516;-72
2021/04/08 06:56:03;;;;;;;7.07;4.63;;;;;;;3.28;61.45;101450.63;5009940;28;20665;-72
2021/04/08 06:58:29;;;;;;;6.13;4.40;;;;;;;3.38;61.73;101450.06;5011319;28;20034;-72
2021/04/08 07:00:55;;;;;;;8.93;4.70;;;;;;;3.49;59.94;101444.25;5010711;28;20026;-72
2021/04/08 07:03:20;;;;;;;10.52;5.60;;;;;;;3.55;59.50;101457.00;5010888;28;20042;-73
2021/04/08 07:05:46;;;;;;;7.50;4.80;;;;;;;3.65;60.31;101453.84;5010441;28;20049;-72
2021/04/08 07:08:11;;;;;;;8.90;5.25;;;;;;;3.70;59.64;101455.31;5010300;28;20041;-72
2021/04/08 07:10:40;;;;;;;9.23;5.45;;;;;;;3.70;58.07;101450.06;5010192;28;20040;-72
2021/04/08 07:13:05;;;;;;;6.60;3.92;;;;;;;3.82;59.85;101451.16;4992815;28;20034;-72
2021/04/08 07:15:30;;;;;;;7.53;4.28;;;;;;;3.97;58.82;101449.47;5010323;28;20372;-73
2021/04/08 07:17:57;;;;;;;9.75;5.30;;;;;;;3.95;58.50;101456.53;5010707;28;20033;-72
2021/04/08 07:20:23;;;;;;;9.55;5.35;;;;;;;4.07;57.69;101455.00;5009623;28;20045;-72
2021/04/08 07:22:48;;;;;;;9.57;5.10;;;;;;;4.11;58.27;101462.59;5010864;28;20487;-72
2021/04/08 07:25:16;;;;;;;6.82;4.40;;;;;;;4.23;58.24;101463.69;5009789;28;20056;-72
2021/04/08 07:27:42;;;;;;;12.40;6.00;;;;;;;4.39;57.55;101464.50;4992615;28;20506;-72
2021/04/08 07:30:08;;;;;;;7.78;5.22;;;;;;;4.34;57.57;101471.78;5010041;28;20041;-72
2021/04/08 07:32:36;;;;;;;8.30;4.80;;;;;;;4.33;56.56;101477.91;5009862;28;20034;-72
2021/04/08 07:35:14;;;;;;;9.23;5.13;;;;;;;4.46;57.05;101480.69;5010488;28;20077;-72
2021/04/08 07:37:41;;;;;;;11.65;5.53;;;;;;;4.47;56.85;101477.13;5009999;28;20069;-72
2021/04/08 07:40:17;;;;;;;9.80;5.40;;;;;;;4.44;56.48;101479.94;5009210;28;20136;-72
2021/04/08 07:42:43;;;;;;;9.32;5.45;;;;;;;4.46;56.73;101478.06;5010077;28;20038;-72
2021/04/08 07:45:09;;;;;;;11.40;5.45;;;;;;;4.49;56.17;101483.13;5010188;28;20562;-72
2021/04/08 07:47:40;;;;;;;8.10;4.65;;;;;;;4.53;56.30;101491.63;5009848;28;20120;-72
2021/04/08 07:50:05;;;;;;;;;;;;;;;4.64;56.52;101489.25;5010303;28;20596;-72
2021/04/08 07:52:35;;;;;;;9.95;5.40;;;;;;;4.65;54.95;101490.94;4992404;28;19925;-72
2021/04/08 07:55:04;;;;;;;10.00;5.63;;;;;;;4.82;56.28;101493.41;5009779;28;20040;-72
2021/04/08 07:57:31;;;;;;;11.50;6.32;;;;;;;5.03;55.55;101498.28;5009905;28;20046;-72
2021/04/08 07:59:56;;;;;;;10.80;5.22;;;;;;;5.11;54.58;101499.53;4992523;28;20030;-72
2021/04/08 08:02:25;;;;;;;11.57;6.35;;;;;;;5.26;56.14;101503.00;5008286;28;20042;-72
2021/04/08 08:05:10;;;;;;;11.27;6.32;;;;;;;5.37;53.69;101506.75;4991919;28;20113;-72
2021/04/08 08:07:36;;;;;;;9.00;4.80;;;;;;;5.44;55.67;101513.31;5009388;28;20044;-73
2021/04/08 08:10:01;;;;;;;7.50;5.15;;;;;;;5.62;55.77;101511.31;5009891;28;20517;-72
2021/04/08 08:12:32;;;;;;;8.27;5.43;;;;;;;5.58;53.20;101512.44;5009082;28;20088;-72
2021/04/08 08:15:13;;;;;;;11.25;5.88;;;;;;;5.38;52.90;101514.50;5009754;28;20030;-72
2021/04/08 08:17:38;;;;;;;11.85;5.07;;;;;;;5.28;54.20;101519.47;5009823;28;20165;-72
2021/04/08 08:20:05;;;;;;;7.45;4.95;;;;;;;5.55;55.11;101523.97;5009211;28;20122;-72
2021/04/08 08:22:35;;;;;;;9.18;5.10;;;;;;;5.91;52.67;101515.59;5009710;28;20038;-71
2021/04/08 08:25:01;;;;;;;10.73;5.88;;;;;;;6.08;51.93;101522.44;5009428;28;20116;-72
2021/04/08 08:27:46;;;;;;;10.45;5.25;;;;;;;6.32;53.61;101524.41;5010031;28;20109;-72
2021/04/08 08:30:31;;;;;;;10.80;4.97;;;;;;;7.14;49.33;101519.81;5009078;28;20038;-72
2021/04/08 08:33:15;;;;;;;9.15;4.85;;;;;;;6.93;48.46;101522.13;5009973;28;20037;-72
2021/04/08 08:35:40;;;;;;;10.23;4.45;;;;;;;7.93;49.42;101517.81;5005174;28;20038;-71
2021/04/08 08:38:15;;;;;;;6.78;3.90;;;;;;;8.24;48.48;101521.69;5009330;28;20057;-71
2021/04/08 08:40:41;;;;;;;8.65;4.20;;;;;;;9.88;46.99;101521.53;4991926;28;20537;-72
2021/04/08 08:43:08;;;;;;;5.05;2.90;;;;;;;10.87;46.47;101522.25;5008901;28;20487;-71
2021/04/08 08:45:35;;;;;;;5.47;3.00;;;;;;;10.37;43.17;101528.16;5009757;28;20034;-71
2021/04/08 08:48:15;;;;;;;8.43;3.60;;;;;;;9.81;43.77;101518.53;5009236;28;20036;-72
2021/04/08 08:50:42;;;;;;;6.60;3.00;;;;;;;9.48;42.74;101522.88;5008057;28;20026;-72
2021/04/08 08:53:09;;;;;;;7.03;3.60;;;;;;;8.90;47.20;101524.72;5009391;28;20126;-70
2021/04/08 08:55:34;;;;;;;8.25;3.65;;;;;;;8.98;46.13;101526.78;5009074;28;20057;-71
2021/04/08 08:58:00;;;;;;;5.75;3.47;;;;;;;8.69;44.75;101522.75;5009690;28;20277;-71
2021/04/08 09:00:27;;;;;;;7.78;4.20;;;;;;;9.09;43.51;101518.91;5008308;28;20376;-72
2021/04/08 09:02:55;;;;;;;8.13;4.22;;;;;;;9.69;42.00;101522.97;5009389;28;20034;-71
2021/04/08 09:05:23;;;;;;;11.65;4.32;;;;;;;10.55;41.15;101528.44;5008239;28;20034;-71
2021/04/08 09:07:51;;;;;;;10.07;4.07;;;;;;;11.02;41.31;101524.47;5007833;28;20034;-72
2021/04/08 09:10:25;;;;;;;6.30;3.60;;;;;;;11.74;40.37;101524.50;5009287;28;20499;-71
2021/04/08 09:12:51;;;;;;;5.95;3.05;;;;;;;12.69;37.35;101523.94;5009206;28;20053;-72
2021/04/08 09:15:18;;;;;;;4.82;2.75;;;;;;;13.02;37.11;101521.81;5012261;28;20038;-72
2021/04/08 09:17:46;;;;;;;5.80;3.20;;;;;;;14.72;35.63;101529.28;5012921;28;20026;-72
2021/04/08 09:20:17;;;;;;;8.30;4.55;;;;;;;13.90;33.98;101523.16;5012413;28;20088;-72
2021/04/08 09:22:51;;;;;;;8.52;3.80;;;;;;;11.43;39.92;101521.88;4995458;28;20376;-72
2021/04/08 09:25:21;;;;;;;7.90;4.88;;;;;;;10.99;38.23;101523.91;5012397;28;20026;-73
2021/04/08 09:28:08;;;;;;;8.90;4.60;;;;;;;10.00;39.91;101516.09;5012977;28;20030;-72
2021/04/08 09:30:54;;;;;;;10.50;4.90;;;;;;;10.16;41.32;101518.34;5012522;28;20034;-71
2021/04/08 09:33:39;;;;;;;8.93;5.32;;;;;;;10.64;39.78;101519.75;5010901;28;20034;-71
2021/04/08 09:36:25;;;;;;;9.90;4.63;;;;;;;10.98;41.13;101517.75;5011425;28;20034;-73
2021/04/08 09:38:51;;;;;;;7.60;4.22;;;;;;;10.82;40.31;101518.22;5012523;28;20033;-72
2021/04/08 09:41:18;;;;;;;10.07;5.07;;;;;;;10.99;38.67;101513.31;5012503;28;20037;-71
2021/04/08 09:43:45;;;;;;;9.05;5.28;;;;;;;11.05;38.27;101503.03;5012465;28;20026;-72
2021/04/08 09:46:12;;;;;;;8.10;4.95;;;;;;;10.75;39.91;101505.59;5011762;28;20030;-72
2021/04/08 09:48:43;;;;;;;12.40;5.97;;;;;;;11.05;38.76;101510.97;5012200;28;20045;-71
2021/04/08 09:51:09;;;;;;;10.02;5.85;;;;;;;11.17;39.01;101505.59;5012141;28;20022;-72
2021/04/08 09:53:37;;;;;;;9.65;4.85;;;;;;;10.87;39.03;101509.03;5012414;28;20034;-71
2021/04/08 09:56:04;;;;;;;8.50;4.82;;;;;;;10.38;39.75;101498.94;5011512;28;20038;-71
2021/04/08 09:58:35;;;;;;;7.43;4.75;;;;;;;9.97;39.75;101497.00;5012154;28;20049;-71
2021/04/08 10:01:07;;;;;;;8.70;4.78;;;;;;;9.60;40.10;101492.03;5012100;28;20026;-71
2021/04/08 10:03:41;;;;;;;8.02;4.95;;;;;;;9.19;41.38;101496.13;5011895;28;20112;-72
2021/04/08 10:06:17;;;;;;;9.48;4.65;;;;;;;8.77;42.64;101487.06;5011100;28;20030;-72
2021/04/08 10:08:44;;;;;;;7.05;4.60;;;;;;;8.40;43.41;101489.81;4994526;28;20054;-72
2021/04/08 10:11:29;;;;;;;5.97;3.92;;;;;;;8.26;44.80;101488.19;5011956;28;20084;-71
2021/04/08 10:13:55;;;;;;;7.85;4.35;;;;;;;8.38;43.68;101495.16;5011470;28;20391;-71
2021/04/08 10:16:20;;;;;;;9.00;4.95;;;;;;;8.48;43.44;101487.44;5011197;28;20054;-72
2021/04/08 10:18:46;;;;;;;8.40;4.38;;;;;;;8.34;43.85;101487.59;5011688;28;20050;-71
2021/04/08 10:21:19;;;;;;;7.78;4.65;;;;;;;8.04;44.16;101476.56;5010986;28;20503;-72
2021/04/08 10:23:47;;;;;;;8.15;4.60;;;;;;;8.09;43.79;101484.97;5010774;28;20574;-71
2021/04/08 10:26:33;;;;;;;8.60;4.43;;;;;;;8.06;43.78;101481.75;4990590;28;20037;-72
2021/04/08 10:29:01;;;;;;;10.27;5.22;;;;;;;8.05;43.20;101480.03;5009471;28;20446;-71
2021/04/08 10:31:31;;;;;;;9.13;4.80;;;;;;;7.80;44.47;101483.63;5010139;28;20033;-72
2021/04/08 10:34:10;;;;;;;8.10;4.65;;;;;;;7.92;44.43;101477.47;4993194;28;20045;-71
2021/04/08 10:36:42;;;;;;;8.50;4.25;;;;;;;8.04;45.33;101484.47;5009677;28;20046;-72
2021/04/08 10:39:20;;;;;;;8.60;4.40;;;;;;;8.21;43.69;101480.59;5001550;28;20108;-71
2021/04/08 10:42:06;;;;;;;7.90;3.72;;;;;;;8.32;43.83;101478.97;5010621;28;20515;-71
2021/04/08 10:44:37;;;;;;;8.40;4.00;;;;;;;8.52;43.14;101481.00;4992346;28;20411;-71
2021/04/08 10:47:02;;;;;;;;;;;;;;;8.23;43.04;101481.34;5010648;28;20415;-72
2021/04/08 10:49:43;;;;;;;6.35;3.47;;;;;;;8.22;43.87;101484.94;5010264;28;20064;-72
2021/04/08 10:52:15;;;;;;;5.07;2.80;;;;;;;7.91;46.17;101477.56;5009466;28;20026;-72
2021/04/08 10:54:43;;;;;;;8.52;3.78;;;;;;;7.60;48.37;101485.03;5010618;28;20026;-71
2021/04/08 10:57:09;;;;;;;6.35;2.97;;;;;;;7.52;44.98;101476.84;5009524;28;20526;-72
2021/04/08 10:59:39;;;;;;;4.55;2.30;;;;;;;7.58;44.89;101476.41;5009708;28;20042;-72
2021/04/08 11:02:17;;;;;;;9.93;3.22;;;;;;;7.59;44.81;101468.41;5010481;28;20033;-71
2021/04/08 11:04:43;;;;;;;6.07;3.25;;;;;;;7.63;44.57;101471.69;5010249;28;20084;-72
2021/04/08 11:07:08;;;;;;;7.68;3.20;;;;;;;7.60;45.56;101464.84;4992105;28;20034;-72
2021/04/08 11:09:33;;;;;;;6.00;3.05;;;;;;;7.74;44.81;101461.19;4992443;28;20044;-72
2021/04/08 11:12:15;;;;;;;7.70;3.85;;;;;;;7.54;44.95;101456.53;5010158;28;20068;-71
2021/04/08 11:14:48;;;;;;;5.40;2.75;;;;;;;7.43;45.54;101460.75;5009532;28;20034;-71
2021/04/08 11:17:14;;;;;;;4.88;3.13;;;;;;;7.48;44.67;101456.97;5010091;28;20554;-71
2021/04/08 11:19:41;;;;;;;7.07;3.80;;;;;;;7.35;46.47;101457.81;5009539;28;20037;-72
2021/04/08 11:22:13;;;;;;;7.75;3.30;;;;;;;7.92;44.15;101461.66;5009475;28;20133;-72
2021/04/08 11:24:40;;;;;;;7.65;3.55;;;;;;;8.03;42.89;101460.88;5010052;28;20676;-71
2021/04/08 11:27:06;;;;;;;4.82;2.60;;;;;;;7.70;44.72;101443.97;5009730;28;20117;-72
2021/04/08 11:29:31;;;;;;;6.60;2.83;;;;;;;7.83;42.40;101451.81;5009979;28;20146;-72
2021/04/08 11:32:07;;;;;;;5.32;2.67;;;;;;;7.88;43.02;101442.59;5009770;28;20038;-72
2021/04/08 11:34:46;;;;;;;8.55;3.92;;;;;;;8.13;42.77;101432.94;5002616;28;20040;-73
2021/04/08 11:37:15;;;;;;;6.30;3.00;;;;;;;7.82;43.36;101432.53;5009499;28;20076;-72